createdAt,value
2019-04-26T00:01:58.538Z,41.58
2019-04-26T00:04:28.457Z,41.74
2019-04-26T00:06:57.888Z,41.92
2019-04-26T00:09:29.219Z,41.88
2019-04-26T00:12:16.747Z,41.69
2019-04-26T00:15:03.795Z,41.16
2019-04-26T00:17:37.847Z,40.75
2019-04-26T00:20:08.563Z,40.49
2019-04-26T00:22:38.033Z,40.41
2019-04-26T00:25:07.902Z,40.42
2019-04-26T00:27:37.509Z,40.66
2019-04-26T00:30:07.069Z,40.75
2019-04-26T00:32:36.677Z,40.94
2019-04-26T00:35:07.551Z,40.90
2019-04-26T00:37:38.186Z,41.00
2019-04-26T00:40:07.848Z,41.24
2019-04-26T00:42:37.377Z,41.34
2019-04-26T00:45:07.242Z,43.13
2019-04-26T00:47:38.229Z,44.81
2019-04-26T00:50:09.495Z,46.09
2019-04-26T00:52:40.594Z,47.80
2019-04-26T00:55:11.506Z,48.35
2019-04-26T00:57:42.111Z,48.79
2019-04-26T01:00:13.752Z,49.39
2019-04-26T01:02:44.866Z,49.89
2019-04-26T01:05:15.634Z,50.49
2019-04-26T01:07:47.225Z,50.75
2019-04-26T01:10:17.718Z,51.55
2019-04-26T01:12:47.257Z,51.81
2019-04-26T01:15:19.798Z,52.00
2019-04-26T01:17:48.181Z,52.19
2019-04-26T01:20:18.877Z,52.47
2019-04-26T01:22:51.433Z,52.72
2019-04-26T01:25:45.022Z,52.92
2019-04-26T01:28:21.256Z,53.30
2019-04-26T01:30:52.956Z,53.61
2019-04-26T01:33:24.127Z,54.08
2019-04-26T01:36:14.404Z,54.46
2019-04-26T01:38:50.130Z,54.66
2019-04-26T01:41:29.766Z,54.87
2019-04-26T01:44:09.924Z,55.55
2019-04-26T01:46:45.201Z,55.79
2019-04-26T01:49:16.750Z,56.11
2019-04-26T01:52:06.982Z,56.40
2019-04-26T01:54:39.458Z,56.85
2019-04-26T01:57:09.773Z,56.88
2019-04-26T01:59:46.930Z,57.09
2019-04-26T02:02:30.200Z,57.29
2019-04-26T02:05:02.438Z,57.39
2019-04-26T02:07:41.476Z,57.51
2019-04-26T02:10:17.435Z,57.77
2019-04-26T02:13:07.703Z,57.86
2019-04-26T02:15:37.562Z,58.02
2019-04-26T02:18:07.067Z,58.36
2019-04-26T02:20:56.130Z,58.38
2019-04-26T02:23:32.100Z,58.59
2019-04-26T02:26:19.184Z,58.75
2019-04-26T02:28:50.077Z,58.97
2019-04-26T02:31:20.833Z,59.15
2019-04-26T02:33:51.541Z,59.32
2019-04-26T02:36:22.386Z,59.55
2019-04-26T02:38:54.962Z,59.76
2019-04-26T02:41:24.472Z,59.97
2019-04-26T02:43:56.987Z,60.09
2019-04-26T02:46:32.494Z,60.42
2019-04-26T02:49:08.665Z,60.48
2019-04-26T02:51:57.861Z,60.63
2019-04-26T02:54:45.363Z,60.89
2019-04-26T02:57:21.043Z,61.04
2019-04-26T02:59:53.281Z,61.21
2019-04-26T03:02:23.730Z,61.56
2019-04-26T03:04:56.498Z,61.75
2019-04-26T03:07:33.393Z,62.04
2019-04-26T03:10:04.234Z,62.25
2019-04-26T03:12:37.708Z,62.34
2019-04-26T03:15:14.525Z,62.55
2019-04-26T03:17:48.607Z,62.67
2019-04-26T03:20:24.191Z,62.84
2019-04-26T03:23:17.747Z,62.98
2019-04-26T03:26:05.385Z,63.09
2019-04-26T03:29:01.569Z,63.26
2019-04-26T03:31:53.200Z,63.38
2019-04-26T03:34:22.389Z,63.54
2019-04-26T03:37:21.724Z,64.00
2019-04-26T03:40:26.035Z,64.11
2019-04-26T03:43:10.298Z,64.64
2019-04-26T03:46:03.875Z,64.56
2019-04-26T03:48:49.082Z,64.70
2019-04-26T03:51:56.887Z,64.83
2019-04-26T03:54:31.299Z,64.98
2019-04-26T03:57:36.265Z,65.28
2019-04-26T04:00:12.739Z,65.41
2019-04-26T04:02:58.579Z,65.60
2019-04-26T04:05:40.153Z,65.92
2019-04-26T04:08:12.830Z,66.05
2019-04-26T04:10:46.064Z,66.19
2019-04-26T04:13:43.530Z,66.50
2019-04-26T04:16:14.791Z,66.61
2019-04-26T04:18:47.675Z,66.67
2019-04-26T04:21:30.849Z,66.88
2019-04-26T04:24:08.685Z,67.07
2019-04-26T04:26:44.850Z,67.03
2019-04-26T04:29:40.111Z,67.15
2019-04-26T04:32:04.281Z,67.29
2019-04-26T04:34:40.129Z,67.24
2019-04-26T04:37:32.931Z,67.31
2019-04-26T04:40:15.703Z,67.27
2019-04-26T04:42:55.397Z,67.47
2019-04-26T04:45:29.602Z,67.54
2019-04-26T04:48:21.709Z,67.53
2019-04-26T04:51:15.179Z,67.49
2019-04-26T04:53:59.524Z,67.46
2019-04-26T04:56:41.992Z,67.58
2019-04-26T04:59:14.481Z,67.47
2019-04-26T05:02:02.966Z,67.76
2019-04-26T05:04:48.967Z,67.79
2019-04-26T05:07:23.137Z,67.72
2019-04-26T05:10:29.122Z,67.63
2019-04-26T05:13:33.569Z,67.62
2019-04-26T05:16:19.687Z,67.62
2019-04-26T05:19:28.548Z,67.57
2019-04-26T05:22:17.439Z,67.46
2019-04-26T05:25:02.038Z,67.40
2019-04-26T05:28:02.340Z,67.40
2019-04-26T05:31:09.612Z,67.21
2019-04-26T05:33:58.000Z,67.09
2019-04-26T05:36:33.271Z,66.92
2019-04-26T05:39:06.734Z,66.90
2019-04-26T05:42:18.825Z,66.90
2019-04-26T05:45:21.275Z,66.71
2019-04-26T05:48:11.566Z,66.44
2019-04-26T05:50:57.909Z,66.26
2019-04-26T05:54:05.230Z,66.12
2019-04-26T05:56:58.919Z,65.94
2019-04-26T05:59:43.566Z,65.73
2019-04-26T06:02:28.839Z,65.74
2019-04-26T06:05:33.317Z,65.80
2019-04-26T06:08:31.784Z,65.78
2019-04-26T06:11:06.040Z,65.88
2019-04-26T06:13:52.313Z,65.57
2019-04-26T06:16:32.561Z,65.49
2019-04-26T06:19:12.657Z,65.67
2019-04-26T06:21:45.149Z,65.41
2019-04-26T06:24:32.467Z,65.46
2019-04-26T06:27:24.835Z,65.19
2019-04-26T06:30:12.291Z,65.04
2019-04-26T06:32:56.403Z,64.97
2019-04-26T06:35:24.580Z,65.06
2019-04-26T06:38:18.053Z,64.71
2019-04-26T06:41:21.694Z,64.30
2019-04-26T06:43:58.902Z,64.18
2019-04-26T06:46:38.845Z,64.48
2019-04-26T06:49:15.551Z,64.36
2019-04-26T06:51:57.094Z,64.14
2019-04-26T06:54:59.960Z,64.21
2019-04-26T06:58:02.985Z,63.94
2019-04-26T07:00:51.981Z,63.81
2019-04-26T07:03:24.495Z,63.32
2019-04-26T07:05:58.804Z,63.04
2019-04-26T07:08:39.730Z,62.72
2019-04-26T07:11:13.875Z,62.70
2019-04-26T07:14:10.094Z,62.60
2019-04-26T07:16:48.558Z,62.06
2019-04-26T07:19:34.683Z,61.04
2019-04-26T07:22:14.808Z,60.86
2019-04-26T07:25:17.862Z,60.36
2019-04-26T07:28:06.032Z,59.56
2019-04-26T07:30:51.431Z,59.36
2019-04-26T07:33:53.074Z,59.37
2019-04-26T07:36:34.637Z,58.37
2019-04-26T07:39:20.314Z,57.96
2019-04-26T07:42:22.123Z,57.90
2019-04-26T07:45:30.778Z,57.97
2019-04-26T07:48:18.622Z,57.74
2019-04-26T07:51:11.528Z,58.14
2019-04-26T07:54:05.085Z,57.89
2019-04-26T07:56:57.068Z,57.30
2019-04-26T07:59:49.461Z,57.53
2019-04-26T08:02:41.400Z,57.87
2019-04-26T08:05:24.342Z,57.75
2019-04-26T08:07:59.714Z,57.14
2019-04-26T08:10:32.392Z,57.07
2019-04-26T08:13:08.043Z,57.12
2019-04-26T08:16:06.412Z,57.06
2019-04-26T08:18:39.956Z,57.34
2019-04-26T08:21:16.940Z,56.90
2019-04-26T08:24:07.951Z,56.79
2019-04-26T08:26:40.561Z,56.54
2019-04-26T08:29:12.709Z,56.68
2019-04-26T08:31:44.055Z,55.71
2019-04-26T08:34:21.105Z,55.45
2019-04-26T08:37:09.109Z,55.64
2019-04-26T08:39:45.454Z,55.52
2019-04-26T08:42:20.087Z,55.87
2019-04-26T08:44:47.753Z,55.45
2019-04-26T08:47:25.850Z,56.38
2019-04-26T08:50:13.033Z,56.00
2019-04-26T08:52:42.583Z,56.12
2019-04-26T08:55:14.354Z,55.79
2019-04-26T08:57:46.242Z,55.73
2019-04-26T09:00:22.828Z,55.60
2019-04-26T09:03:12.033Z,55.63
2019-04-26T09:05:49.861Z,54.93
2019-04-26T09:08:21.661Z,55.06
2019-04-26T09:10:53.596Z,54.93
2019-04-26T09:13:26.082Z,54.62
2019-04-26T09:16:16.618Z,54.09
2019-04-26T09:18:52.576Z,53.46
2019-04-26T09:21:20.404Z,53.12
2019-04-26T09:23:54.483Z,52.46
2019-04-26T09:26:42.577Z,52.41
2019-04-26T09:29:22.508Z,52.11
2019-04-26T09:32:11.720Z,52.09
2019-04-26T09:34:42.905Z,52.68
2019-04-26T09:37:12.466Z,52.35
2019-04-26T09:39:43.339Z,51.60
2019-04-26T09:42:17.324Z,51.37
2019-04-26T09:44:56.821Z,51.95
2019-04-26T09:47:43.469Z,51.87
2019-04-26T09:50:31.385Z,50.60
2019-04-26T09:53:00.837Z,50.76
2019-04-26T09:55:35.552Z,51.27
2019-04-26T09:58:02.488Z,51.19
2019-04-26T10:00:31.994Z,51.01
2019-04-26T10:03:05.567Z,50.98
2019-04-26T10:05:34.413Z,50.99
2019-04-26T10:08:04.234Z,50.75
2019-04-26T10:10:35.346Z,50.81
2019-04-26T10:13:22.639Z,51.25
2019-04-26T10:16:09.032Z,51.63
2019-04-26T10:18:41.112Z,51.40
2019-04-26T10:21:10.543Z,51.33
2019-04-26T10:23:40.091Z,51.41
2019-04-26T10:26:09.876Z,51.47
2019-04-26T10:28:39.412Z,51.37
2019-04-26T10:31:08.895Z,51.14
2019-04-26T10:33:38.330Z,51.52
2019-04-26T10:36:07.803Z,51.09
2019-04-26T10:38:37.240Z,50.81
2019-04-26T10:41:08.627Z,50.70
2019-04-26T10:43:38.068Z,50.83
2019-04-26T10:46:07.868Z,50.62
2019-04-26T10:48:37.384Z,51.22
2019-04-26T10:51:07.772Z,51.71
2019-04-26T10:53:45.649Z,52.07
2019-04-26T10:56:20.163Z,52.21
2019-04-26T10:58:52.368Z,52.76
2019-04-26T11:01:22.093Z,53.31
2019-04-26T11:03:52.631Z,54.15
2019-04-26T11:06:24.042Z,54.28
2019-04-26T11:08:53.429Z,54.16
2019-04-26T11:11:23.026Z,54.77
2019-04-26T11:13:52.568Z,54.97
2019-04-26T11:16:22.643Z,54.75
2019-04-26T11:18:52.126Z,54.30
2019-04-26T11:21:22.453Z,53.47
2019-04-26T11:23:52.972Z,53.06
2019-04-26T11:26:22.450Z,52.88
2019-04-26T11:28:55.806Z,53.30
2019-04-26T11:31:27.180Z,53.27
2019-04-26T11:34:04.668Z,53.48
2019-04-26T11:36:25.568Z,54.17
2019-04-26T11:38:55.024Z,54.82
2019-04-26T11:41:24.493Z,54.90
2019-04-26T11:43:54.574Z,55.10
2019-04-26T11:46:29.195Z,55.16
2019-04-26T11:48:59.260Z,55.18
2019-04-26T11:51:27.584Z,55.09
2019-04-26T11:53:57.879Z,55.58
2019-04-26T11:56:27.463Z,55.71
2019-04-26T11:58:58.366Z,55.74
2019-04-26T12:01:29.646Z,55.73
2019-04-26T12:04:10.058Z,55.71
2019-04-26T12:06:53.724Z,55.63
2019-04-26T12:09:24.923Z,55.68
2019-04-26T12:12:04.363Z,55.67
2019-04-26T12:14:29.485Z,55.94
2019-04-26T12:16:59.603Z,56.13
2019-04-26T12:19:29.200Z,56.40
2019-04-26T12:21:58.794Z,56.00
2019-04-26T12:24:30.007Z,55.74
2019-04-26T12:26:59.425Z,56.47
2019-04-26T12:29:28.883Z,56.72
2019-04-26T12:31:58.554Z,56.95
2019-04-26T12:34:29.117Z,57.33
2019-04-26T12:36:58.701Z,57.39
2019-04-26T12:39:32.312Z,57.23
2019-04-26T12:41:59.916Z,57.11
2019-04-26T12:44:32.163Z,56.62
2019-04-26T12:47:06.978Z,56.68
2019-04-26T12:49:36.525Z,56.69
2019-04-26T12:52:06.299Z,56.72
2019-04-26T12:54:38.972Z,56.50
2019-04-26T12:57:07.982Z,56.45
2019-04-26T12:59:44.001Z,56.40
2019-04-26T13:02:08.616Z,55.99
2019-04-26T13:04:40.481Z,55.62
2019-04-26T13:07:23.456Z,54.88
2019-04-26T13:10:05.594Z,54.84
2019-04-26T13:12:45.649Z,55.21
2019-04-26T13:15:51.765Z,55.16
2019-04-26T13:18:21.276Z,54.89
2019-04-26T13:20:50.832Z,55.34
2019-04-26T13:23:20.644Z,55.18
2019-04-26T13:25:50.176Z,55.35
2019-04-26T13:28:20.259Z,55.25
2019-04-26T13:30:50.789Z,55.02
2019-04-26T13:33:23.277Z,55.18
2019-04-26T13:36:02.617Z,55.42
2019-04-26T13:38:22.825Z,55.28
2019-04-26T13:40:52.358Z,55.04
2019-04-26T13:43:22.668Z,55.31
2019-04-26T13:46:06.735Z,55.37
2019-04-26T13:48:39.231Z,55.24
2019-04-26T13:51:10.695Z,55.40
2019-04-26T13:53:40.326Z,55.58
2019-04-26T13:56:09.782Z,55.21
2019-04-26T13:58:39.223Z,55.54
2019-04-26T14:01:09.188Z,55.70
2019-04-26T14:03:38.632Z,55.31
2019-04-26T14:06:08.274Z,55.30
2019-04-26T14:08:37.749Z,56.07
2019-04-26T14:11:07.299Z,56.00
2019-04-26T14:13:37.810Z,56.20
2019-04-26T14:16:07.450Z,56.04
2019-04-26T14:18:38.992Z,55.52
2019-04-26T14:21:09.029Z,55.67
2019-04-26T14:23:40.413Z,55.68
2019-04-26T14:26:11.479Z,56.32
2019-04-26T14:28:42.125Z,56.85
2019-04-26T14:31:15.844Z,57.31
2019-04-26T14:33:43.158Z,57.70
2019-04-26T14:36:17.953Z,58.07
2019-04-26T14:38:43.897Z,58.39
2019-04-26T14:41:17.705Z,58.77
2019-04-26T14:43:44.804Z,59.45
2019-04-26T14:46:15.936Z,60.23
2019-04-26T14:49:00.351Z,61.13
2019-04-26T14:51:18.277Z,61.18
2019-04-26T14:53:47.897Z,61.33
2019-04-26T14:56:17.391Z,61.33
2019-04-26T14:58:46.947Z,61.27
2019-04-26T15:01:24.633Z,61.64
2019-04-26T15:04:13.043Z,61.89
2019-04-26T15:06:47.221Z,62.30
2019-04-26T15:09:20.202Z,62.91
2019-04-26T15:11:54.113Z,63.18
2019-04-26T15:14:22.842Z,63.87
2019-04-26T15:16:52.565Z,64.08
2019-04-26T15:19:22.588Z,64.79
2019-04-26T15:21:52.432Z,65.10
2019-04-26T15:24:22.671Z,66.15
2019-04-26T15:26:52.374Z,66.79
2019-04-26T15:29:26.897Z,67.52
2019-04-26T15:31:53.704Z,67.30
2019-04-26T15:34:26.604Z,67.34
2019-04-26T15:36:55.307Z,67.05
2019-04-26T15:39:33.093Z,67.26
2019-04-26T15:42:04.319Z,67.07
2019-04-26T15:44:38.377Z,67.06
2019-04-26T15:47:23.557Z,67.33
2019-04-26T15:49:54.795Z,66.93
2019-04-26T15:52:24.350Z,66.42
2019-04-26T15:54:58.935Z,66.44
2019-04-26T15:57:31.292Z,66.43
2019-04-26T15:59:58.071Z,66.39
2019-04-26T16:02:27.440Z,66.31
2019-04-26T16:04:56.880Z,66.57
2019-04-26T16:07:28.876Z,66.62
2019-04-26T16:09:57.952Z,66.78
2019-04-26T16:12:27.473Z,66.74
2019-04-26T16:14:56.906Z,67.00
2019-04-26T16:17:26.367Z,67.28
2019-04-26T16:19:56.189Z,67.60
2019-04-26T16:22:30.012Z,67.93
2019-04-26T16:25:01.811Z,68.12
2019-04-26T16:27:32.430Z,68.87
2019-04-26T16:30:18.414Z,69.01
2019-04-26T16:32:59.905Z,69.08
2019-04-26T16:35:29.571Z,69.75
2019-04-26T16:38:02.633Z,69.72
2019-04-26T16:40:32.584Z,69.91
2019-04-26T16:43:03.934Z,69.92
2019-04-26T16:45:37.320Z,70.05
2019-04-26T16:48:04.950Z,70.68
2019-04-26T16:50:41.926Z,71.27
2019-04-26T16:53:05.763Z,71.98
2019-04-26T16:55:47.931Z,72.31
2019-04-26T16:58:06.408Z,72.46
2019-04-26T17:00:50.069Z,72.82
2019-04-26T17:03:08.085Z,72.85
2019-04-26T17:05:47.724Z,73.09
2019-04-26T17:08:10.373Z,73.18
2019-04-26T17:10:40.049Z,73.20
2019-04-26T17:13:09.813Z,73.90
2019-04-26T17:15:39.259Z,73.52
2019-04-26T17:18:09.819Z,73.72
2019-04-26T17:20:40.457Z,73.73
2019-04-26T17:23:19.432Z,73.55
2019-04-26T17:25:59.109Z,73.64
2019-04-26T17:28:27.376Z,73.93
2019-04-26T17:30:57.527Z,73.79
2019-04-26T17:33:28.323Z,74.16
2019-04-26T17:35:58.710Z,74.57
2019-04-26T17:38:28.221Z,74.62
2019-04-26T17:40:57.665Z,74.75
2019-04-26T17:43:27.160Z,75.32
2019-04-26T17:45:56.623Z,75.60
2019-04-26T17:48:26.111Z,76.00
2019-04-26T17:50:55.580Z,76.61
2019-04-26T17:53:28.811Z,76.99
2019-04-26T17:55:56.299Z,77.90
2019-04-26T17:58:31.014Z,78.01
2019-04-26T18:01:01.058Z,78.14
2019-04-26T18:03:28.323Z,78.77
2019-04-26T18:06:00.851Z,79.01
2019-04-26T18:08:40.662Z,79.31
2019-04-26T18:11:00.854Z,79.46
2019-04-26T18:13:32.095Z,79.93
2019-04-26T18:16:03.497Z,80.16
2019-04-26T18:18:53.605Z,80.32
2019-04-26T18:21:37.625Z,80.49
2019-04-26T18:24:07.265Z,80.89
2019-04-26T18:26:36.809Z,80.47
2019-04-26T18:29:06.384Z,81.11
2019-04-26T18:31:35.936Z,81.15
2019-04-26T18:34:05.539Z,81.28
2019-04-26T18:36:35.001Z,81.35
2019-04-26T18:39:06.960Z,81.55
2019-04-26T18:41:36.807Z,81.75
2019-04-26T18:44:06.389Z,81.97
2019-04-26T18:46:40.544Z,82.32
2019-04-26T18:49:11.328Z,82.54
2019-04-26T18:51:43.371Z,82.58
2019-04-26T18:54:14.402Z,83.07
2019-04-26T18:56:45.688Z,82.81
2019-04-26T18:59:15.612Z,83.15
2019-04-26T19:01:46.345Z,82.96
2019-04-26T19:04:16.186Z,83.20
2019-04-26T19:06:45.789Z,83.39
2019-04-26T19:09:17.404Z,83.51
2019-04-26T19:11:48.591Z,83.63
2019-04-26T19:14:28.963Z,83.69
2019-04-26T19:17:02.912Z,83.79
2019-04-26T19:19:51.688Z,83.92
2019-04-26T19:22:22.514Z,84.01
2019-04-26T19:24:55.860Z,84.07
2019-04-26T19:27:26.714Z,84.19
2019-04-26T19:29:54.401Z,84.21
2019-04-26T19:32:23.858Z,84.52
2019-04-26T19:34:53.332Z,84.74
2019-04-26T19:37:23.365Z,84.79
2019-04-26T19:39:52.939Z,84.79
2019-04-26T19:42:22.439Z,84.85
2019-04-26T19:45:09.428Z,84.88
2019-04-26T19:47:35.454Z,84.97
2019-04-26T19:50:26.099Z,85.01
2019-04-26T19:52:57.319Z,84.65
2019-04-26T19:55:37.227Z,84.70
2019-04-26T19:58:20.502Z,84.79
2019-04-26T20:00:48.883Z,84.96
2019-04-26T20:03:18.450Z,84.86
2019-04-26T20:05:48.001Z,84.95
2019-04-26T20:08:18.442Z,85.07
2019-04-26T20:10:47.915Z,85.17
2019-04-26T20:13:17.391Z,85.14
2019-04-26T20:15:47.342Z,84.95
2019-04-26T20:18:17.601Z,85.07
2019-04-26T20:20:47.401Z,85.11
2019-04-26T20:23:19.687Z,84.73
2019-04-26T20:25:49.289Z,84.79
2019-04-26T20:28:18.796Z,84.95
2019-04-26T20:30:57.379Z,84.75
2019-04-26T20:33:31.229Z,84.80
2019-04-26T20:36:03.338Z,84.94
2019-04-26T20:38:35.860Z,84.71
2019-04-26T20:41:01.565Z,84.72
2019-04-26T20:43:32.102Z,84.78
2019-04-26T20:46:12.495Z,84.96
2019-04-26T20:48:33.249Z,84.90
2019-04-26T20:51:06.607Z,85.18
2019-04-26T20:53:40.019Z,84.92
2019-04-26T20:56:09.898Z,84.99
2019-04-26T20:58:37.387Z,85.08
2019-04-26T21:01:10.978Z,85.37
2019-04-26T21:03:42.870Z,85.39
2019-04-26T21:06:12.230Z,85.32
2019-04-26T21:08:42.416Z,85.17
2019-04-26T21:11:13.703Z,85.17
2019-04-26T21:13:43.425Z,85.38
2019-04-26T21:16:15.317Z,85.53
2019-04-26T21:18:44.548Z,85.40
2019-04-26T21:21:16.029Z,85.41
2019-04-26T21:23:46.922Z,85.25
2019-04-26T21:26:18.121Z,85.28
2019-04-26T21:28:58.450Z,85.40
2019-04-26T21:31:29.567Z,85.27
2019-04-26T21:34:00.678Z,84.69
2019-04-26T21:36:34.709Z,84.67
2019-04-26T21:39:20.942Z,84.78
2019-04-26T21:41:53.206Z,84.82
2019-04-26T21:44:22.757Z,84.76
2019-04-26T21:46:56.178Z,84.79
2019-04-26T21:49:24.371Z,84.82
2019-04-26T21:51:55.005Z,84.96
2019-04-26T21:54:25.193Z,85.11
2019-04-26T21:56:55.872Z,85.29
2019-04-26T21:59:25.348Z,85.29
2019-04-26T22:01:58.971Z,85.32
2019-04-26T22:04:28.938Z,85.37
2019-04-26T22:06:59.963Z,85.24
2019-04-26T22:09:39.584Z,85.24
2019-04-26T22:12:10.655Z,85.29
2019-04-26T22:14:43.171Z,85.08
2019-04-26T22:17:14.591Z,84.96
2019-04-26T22:19:45.783Z,85.19
2019-04-26T22:22:20.018Z,85.27
2019-04-26T22:24:51.133Z,85.21
2019-04-26T22:27:21.746Z,85.16
2019-04-26T22:29:52.832Z,85.28
2019-04-26T22:32:23.073Z,85.34
2019-04-26T22:34:53.891Z,85.33
2019-04-26T22:37:29.842Z,85.30
2019-04-26T22:39:55.116Z,85.19
2019-04-26T22:42:24.854Z,85.22
2019-04-26T22:45:04.952Z,85.29
2019-04-26T22:47:42.694Z,85.38
2019-04-26T22:50:13.995Z,85.34
2019-04-26T22:52:46.658Z,85.31
2019-04-26T22:55:22.180Z,85.46
2019-04-26T22:57:49.667Z,85.55
2019-04-26T23:00:20.070Z,85.64
2019-04-26T23:02:53.279Z,85.59
2019-04-26T23:05:23.093Z,85.63
2019-04-26T23:07:54.670Z,85.70
2019-04-26T23:10:31.202Z,85.69
2019-04-26T23:13:04.484Z,85.69
2019-04-26T23:15:36.571Z,85.63
2019-04-26T23:18:08.235Z,85.65
2019-04-26T23:20:46.418Z,85.75
2019-04-26T23:23:15.893Z,85.73
2019-04-26T23:25:45.603Z,85.73
2019-04-26T23:28:15.144Z,85.74
2019-04-26T23:30:44.649Z,85.70
2019-04-26T23:33:15.284Z,85.86
2019-04-26T23:35:47.582Z,85.99
2019-04-26T23:38:16.104Z,86.01
2019-04-26T23:40:45.553Z,85.98
2019-04-26T23:43:15.056Z,85.86
2019-04-26T23:45:48.353Z,85.81
2019-04-26T23:48:15.741Z,85.81
2019-04-26T23:50:46.283Z,85.74
2019-04-26T23:53:20.217Z,85.81
2019-04-26T23:55:46.889Z,85.97
2019-04-26T23:58:16.329Z,86.10
